Aviation Digital Data Service (ADDS)

Output produced by METARs form (0051 UTC 25 July 2017)
found at http://aviationweather.gov/adds/metars/
 
KILG 242342Z 2500/2524 20004KT P6SM FEW120 BKN210 
     FM250100 VRB03KT P6SM BKN050 
     FM250130 15005KT 6SM -TSRA SCT020CB BKN030 OVC040 
     TEMPO 2502/2504 VRB10G20KT 4SM -TSRA SCT015CB OVC025 
     FM250400 05008KT P6SM BKN025 
     FM250900 01005KT P6SM SCT007 BKN012 
     FM251700 34007KT P6SM SCT040 
     FM252000 35007KT P6SM BKN035 
     FM252300 04006KT P6SM BKN035